sensor_id;sensor_type;location;lat;lon;timestamp;temperature;humidity
3986;DHT22;2007;48.750;9.278;2023-12-20T00:01:21;12.60;53.70
3986;DHT22;2007;48.750;9.278;2023-12-20T00:03:49;12.60;53.70
3986;DHT22;2007;48.750;9.278;2023-12-20T00:06:17;12.60;53.70
3986;DHT22;2007;48.750;9.278;2023-12-20T00:08:46;12.60;53.70
3986;DHT22;2007;48.750;9.278;2023-12-20T00:11:14;12.60;53.70
3986;DHT22;2007;48.750;9.278;2023-12-20T00:13:42;12.60;53.80
3986;DHT22;2007;48.750;9.278;2023-12-20T00:16:13;12.60;53.70
3986;DHT22;2007;48.750;9.278;2023-12-20T00:18:41;12.60;53.70
3986;DHT22;2007;48.750;9.278;2023-12-20T00:21:09;12.60;53.70
3986;DHT22;2007;48.750;9.278;2023-12-20T00:23:37;12.60;53.70
3986;DHT22;2007;48.750;9.278;2023-12-20T00:26:06;12.60;53.70
3986;DHT22;2007;48.750;9.278;2023-12-20T00:28:34;12.60;53.70
3986;DHT22;2007;48.750;9.278;2023-12-20T00:31:02;12.60;53.70
3986;DHT22;2007;48.750;9.278;2023-12-20T00:33:31;12.60;53.70
3986;DHT22;2007;48.750;9.278;2023-12-20T00:35:59;12.60;53.70
3986;DHT22;2007;48.750;9.278;2023-12-20T00:38:27;12.60;53.80
3986;DHT22;2007;48.750;9.278;2023-12-20T00:40:55;12.60;53.70
3986;DHT22;2007;48.750;9.278;2023-12-20T00:43:24;12.60;53.80
3986;DHT22;2007;48.750;9.278;2023-12-20T00:45:53;12.60;53.70
3986;DHT22;2007;48.750;9.278;2023-12-20T00:48:22;12.60;53.70
3986;DHT22;2007;48.750;9.278;2023-12-20T00:50:50;12.60;53.70
3986;DHT22;2007;48.750;9.278;2023-12-20T00:53:18;12.60;53.80
3986;DHT22;2007;48.750;9.278;2023-12-20T00:55:46;12.60;53.80
3986;DHT22;2007;48.750;9.278;2023-12-20T00:58:14;12.60;53.80
3986;DHT22;2007;48.750;9.278;2023-12-20T01:00:44;12.60;53.80
3986;DHT22;2007;48.750;9.278;2023-12-20T01:03:12;12.60;53.80
3986;DHT22;2007;48.750;9.278;2023-12-20T01:05:41;12.60;53.80
3986;DHT22;2007;48.750;9.278;2023-12-20T01:08:09;12.60;53.80
3986;DHT22;2007;48.750;9.278;2023-12-20T01:10:37;12.60;53.80
3986;DHT22;2007;48.750;9.278;2023-12-20T01:13:05;12.60;53.80
3986;DHT22;2007;48.750;9.278;2023-12-20T01:15:33;12.60;53.80
3986;DHT22;2007;48.750;9.278;2023-12-20T01:18:03;12.60;53.80
3986;DHT22;2007;48.750;9.278;2023-12-20T01:20:31;12.60;53.90
3986;DHT22;2007;48.750;9.278;2023-12-20T01:22:59;12.60;53.80
3986;DHT22;2007;48.750;9.278;2023-12-20T01:25:27;12.60;53.80
3986;DHT22;2007;48.750;9.278;2023-12-20T01:27:55;12.60;53.80
3986;DHT22;2007;48.750;9.278;2023-12-20T01:30:23;12.60;53.80
3986;DHT22;2007;48.750;9.278;2023-12-20T01:32:51;12.60;53.80
3986;DHT22;2007;48.750;9.278;2023-12-20T01:35:20;12.60;53.80
3986;DHT22;2007;48.750;9.278;2023-12-20T01:37:48;12.60;53.80
3986;DHT22;2007;48.750;9.278;2023-12-20T01:40:16;12.60;53.80
3986;DHT22;2007;48.750;9.278;2023-12-20T01:42:44;12.60;53.80
3986;DHT22;2007;48.750;9.278;2023-12-20T01:45:12;12.60;53.80
3986;DHT22;2007;48.750;9.278;2023-12-20T01:47:40;12.60;53.80
3986;DHT22;2007;48.750;9.278;2023-12-20T01:50:09;12.60;53.80
3986;DHT22;2007;48.750;9.278;2023-12-20T01:52:39;12.60;53.80
3986;DHT22;2007;48.750;9.278;2023-12-20T01:55:07;12.60;53.80
3986;DHT22;2007;48.750;9.278;2023-12-20T01:57:40;12.70;53.90
3986;DHT22;2007;48.750;9.278;2023-12-20T02:00:10;12.60;53.80
3986;DHT22;2007;48.750;9.278;2023-12-20T02:02:40;12.60;53.90
3986;DHT22;2007;48.750;9.278;2023-12-20T02:05:08;12.70;54.00
3986;DHT22;2007;48.750;9.278;2023-12-20T02:07:37;12.70;54.00
3986;DHT22;2007;48.750;9.278;2023-12-20T02:10:07;12.60;53.90
3986;DHT22;2007;48.750;9.278;2023-12-20T02:12:35;12.70;54.00
3986;DHT22;2007;48.750;9.278;2023-12-20T02:15:04;12.70;54.00
3986;DHT22;2007;48.750;9.278;2023-12-20T02:17:32;12.70;54.00
3986;DHT22;2007;48.750;9.278;2023-12-20T02:20:01;12.70;54.00
3986;DHT22;2007;48.750;9.278;2023-12-20T02:22:31;12.70;54.00
3986;DHT22;2007;48.750;9.278;2023-12-20T02:24:59;12.70;54.00
3986;DHT22;2007;48.750;9.278;2023-12-20T02:27:28;12.70;54.00
3986;DHT22;2007;48.750;9.278;2023-12-20T02:29:56;12.70;54.60
3986;DHT22;2007;48.750;9.278;2023-12-20T02:32:24;12.70;54.00
3986;DHT22;2007;48.750;9.278;2023-12-20T02:34:54;12.70;54.00
3986;DHT22;2007;48.750;9.278;2023-12-20T02:37:22;12.70;54.00
3986;DHT22;2007;48.750;9.278;2023-12-20T02:39:51;12.70;54.00
3986;DHT22;2007;48.750;9.278;2023-12-20T02:42:19;12.70;54.00
3986;DHT22;2007;48.750;9.278;2023-12-20T02:44:47;12.70;54.00
3986;DHT22;2007;48.750;9.278;2023-12-20T02:47:15;12.70;54.00
3986;DHT22;2007;48.750;9.278;2023-12-20T02:49:43;12.70;54.00
3986;DHT22;2007;48.750;9.278;2023-12-20T02:52:11;12.70;54.00
3986;DHT22;2007;48.750;9.278;2023-12-20T02:54:39;12.70;54.00
3986;DHT22;2007;48.750;9.278;2023-12-20T02:57:09;12.70;54.00
3986;DHT22;2007;48.750;9.278;2023-12-20T02:59:36;12.70;54.00
3986;DHT22;2007;48.750;9.278;2023-12-20T03:02:05;12.70;54.00
3986;DHT22;2007;48.750;9.278;2023-12-20T03:04:34;12.70;54.00
3986;DHT22;2007;48.750;9.278;2023-12-20T03:07:02;12.70;54.00
3986;DHT22;2007;48.750;9.278;2023-12-20T03:09:30;12.70;54.00
3986;DHT22;2007;48.750;9.278;2023-12-20T03:12:19;12.70;54.00
3986;DHT22;2007;48.750;9.278;2023-12-20T03:14:48;12.70;54.00
3986;DHT22;2007;48.750;9.278;2023-12-20T03:17:16;12.70;54.70
3986;DHT22;2007;48.750;9.278;2023-12-20T03:19:44;12.70;54.00
3986;DHT22;2007;48.750;9.278;2023-12-20T03:22:12;12.70;54.00
3986;DHT22;2007;48.750;9.278;2023-12-20T03:24:40;12.70;54.00
3986;DHT22;2007;48.750;9.278;2023-12-20T03:27:08;12.70;54.00
3986;DHT22;2007;48.750;9.278;2023-12-20T03:29:37;12.70;54.00
3986;DHT22;2007;48.750;9.278;2023-12-20T03:32:05;12.70;54.70
3986;DHT22;2007;48.750;9.278;2023-12-20T03:34:35;12.70;54.00
3986;DHT22;2007;48.750;9.278;2023-12-20T03:37:03;12.70;54.00
3986;DHT22;2007;48.750;9.278;2023-12-20T03:39:31;12.70;54.00
3986;DHT22;2007;48.750;9.278;2023-12-20T03:41:59;12.70;54.00
3986;DHT22;2007;48.750;9.278;2023-12-20T03:44:27;12.70;54.00
3986;DHT22;2007;48.750;9.278;2023-12-20T03:46:56;12.70;54.00
3986;DHT22;2007;48.750;9.278;2023-12-20T03:49:24;12.70;54.00
3986;DHT22;2007;48.750;9.278;2023-12-20T03:51:52;12.70;54.00
3986;DHT22;2007;48.750;9.278;2023-12-20T03:54:20;12.70;54.70
3986;DHT22;2007;48.750;9.278;2023-12-20T03:56:48;12.70;54.00
3986;DHT22;2007;48.750;9.278;2023-12-20T03:59:17;12.70;54.00
3986;DHT22;2007;48.750;9.278;2023-12-20T04:01:45;12.70;54.00
3986;DHT22;2007;48.750;9.278;2023-12-20T04:04:15;12.70;54.00
3986;DHT22;2007;48.750;9.278;2023-12-20T04:06:43;12.70;54.00
3986;DHT22;2007;48.750;9.278;2023-12-20T04:09:11;12.70;54.00
3986;DHT22;2007;48.750;9.278;2023-12-20T04:11:39;12.70;54.00
3986;DHT22;2007;48.750;9.278;2023-12-20T04:14:07;12.70;54.00
3986;DHT22;2007;48.750;9.278;2023-12-20T04:16:35;12.70;54.10
3986;DHT22;2007;48.750;9.278;2023-12-20T04:19:03;12.70;54.00
3986;DHT22;2007;48.750;9.278;2023-12-20T04:21:32;12.70;54.00
3986;DHT22;2007;48.750;9.278;2023-12-20T04:24:00;12.70;54.00
3986;DHT22;2007;48.750;9.278;2023-12-20T04:26:28;12.70;54.00
3986;DHT22;2007;48.750;9.278;2023-12-20T04:28:57;12.70;54.00
3986;DHT22;2007;48.750;9.278;2023-12-20T04:31:25;12.70;54.10
3986;DHT22;2007;48.750;9.278;2023-12-20T04:33:53;12.70;54.10
3986;DHT22;2007;48.750;9.278;2023-12-20T04:36:21;12.70;54.10
3986;DHT22;2007;48.750;9.278;2023-12-20T04:38:50;12.80;54.20
3986;DHT22;2007;48.750;9.278;2023-12-20T04:41:18;12.80;54.20
3986;DHT22;2007;48.750;9.278;2023-12-20T04:43:46;12.80;54.20
3986;DHT22;2007;48.750;9.278;2023-12-20T04:46:14;12.80;54.20
3986;DHT22;2007;48.750;9.278;2023-12-20T04:48:42;12.80;54.20
3986;DHT22;2007;48.750;9.278;2023-12-20T04:51:10;12.70;54.10
3986;DHT22;2007;48.750;9.278;2023-12-20T04:53:38;12.70;54.10
3986;DHT22;2007;48.750;9.278;2023-12-20T04:56:08;12.80;54.20
3986;DHT22;2007;48.750;9.278;2023-12-20T04:58:36;12.80;54.20
3986;DHT22;2007;48.750;9.278;2023-12-20T05:01:05;12.80;54.20
3986;DHT22;2007;48.750;9.278;2023-12-20T05:03:33;12.80;54.20
3986;DHT22;2007;48.750;9.278;2023-12-20T05:06:01;12.80;54.20
3986;DHT22;2007;48.750;9.278;2023-12-20T05:08:30;12.80;54.10
3986;DHT22;2007;48.750;9.278;2023-12-20T05:10:58;12.80;54.20
3986;DHT22;2007;48.750;9.278;2023-12-20T05:13:27;12.80;54.20
3986;DHT22;2007;48.750;9.278;2023-12-20T05:16:10;12.80;54.80
3986;DHT22;2007;48.750;9.278;2023-12-20T05:18:40;12.80;54.20
3986;DHT22;2007;48.750;9.278;2023-12-20T05:21:08;12.80;54.20
3986;DHT22;2007;48.750;9.278;2023-12-20T05:23:37;12.80;54.20
3986;DHT22;2007;48.750;9.278;2023-12-20T05:26:04;12.80;54.20
3986;DHT22;2007;48.750;9.278;2023-12-20T05:28:34;12.80;54.20
3986;DHT22;2007;48.750;9.278;2023-12-20T05:31:02;12.80;54.20
3986;DHT22;2007;48.750;9.278;2023-12-20T05:33:30;12.80;54.20
3986;DHT22;2007;48.750;9.278;2023-12-20T05:35:59;12.80;54.20
3986;DHT22;2007;48.750;9.278;2023-12-20T05:38:49;12.80;54.20
3986;DHT22;2007;48.750;9.278;2023-12-20T05:41:17;12.80;54.20
3986;DHT22;2007;48.750;9.278;2023-12-20T05:43:46;12.80;54.80
3986;DHT22;2007;48.750;9.278;2023-12-20T05:46:14;12.80;54.20
3986;DHT22;2007;48.750;9.278;2023-12-20T05:48:42;12.80;54.20
3986;DHT22;2007;48.750;9.278;2023-12-20T05:51:11;12.80;54.20
3986;DHT22;2007;48.750;9.278;2023-12-20T05:53:40;12.80;54.20
3986;DHT22;2007;48.750;9.278;2023-12-20T05:56:08;12.80;54.20
3986;DHT22;2007;48.750;9.278;2023-12-20T05:58:36;12.80;54.20
3986;DHT22;2007;48.750;9.278;2023-12-20T06:01:05;12.80;54.20
3986;DHT22;2007;48.750;9.278;2023-12-20T06:03:35;12.80;54.20
3986;DHT22;2007;48.750;9.278;2023-12-20T06:06:05;12.80;54.20
3986;DHT22;2007;48.750;9.278;2023-12-20T06:08:42;12.80;54.20
3986;DHT22;2007;48.750;9.278;2023-12-20T06:11:11;12.80;54.20
3986;DHT22;2007;48.750;9.278;2023-12-20T06:13:40;12.80;54.20
3986;DHT22;2007;48.750;9.278;2023-12-20T06:16:09;12.80;54.20
3986;DHT22;2007;48.750;9.278;2023-12-20T06:18:37;12.80;54.20
3986;DHT22;2007;48.750;9.278;2023-12-20T06:21:05;12.80;54.20
3986;DHT22;2007;48.750;9.278;2023-12-20T06:23:34;12.80;54.20
3986;DHT22;2007;48.750;9.278;2023-12-20T06:26:03;12.80;54.20
3986;DHT22;2007;48.750;9.278;2023-12-20T06:28:31;12.80;54.20
3986;DHT22;2007;48.750;9.278;2023-12-20T06:30:59;12.80;54.20
3986;DHT22;2007;48.750;9.278;2023-12-20T06:33:28;12.80;54.20
3986;DHT22;2007;48.750;9.278;2023-12-20T06:35:57;12.80;54.20
3986;DHT22;2007;48.750;9.278;2023-12-20T06:38:25;12.80;54.20
3986;DHT22;2007;48.750;9.278;2023-12-20T06:40:54;12.80;54.20
3986;DHT22;2007;48.750;9.278;2023-12-20T06:43:24;12.80;54.20
3986;DHT22;2007;48.750;9.278;2023-12-20T06:46:12;12.80;54.20
3986;DHT22;2007;48.750;9.278;2023-12-20T06:48:42;12.80;54.20
3986;DHT22;2007;48.750;9.278;2023-12-20T06:51:13;12.80;54.20
3986;DHT22;2007;48.750;9.278;2023-12-20T06:53:42;12.80;54.20
3986;DHT22;2007;48.750;9.278;2023-12-20T06:56:11;12.80;54.20
3986;DHT22;2007;48.750;9.278;2023-12-20T06:58:44;12.80;54.20
3986;DHT22;2007;48.750;9.278;2023-12-20T07:01:12;12.80;54.20
3986;DHT22;2007;48.750;9.278;2023-12-20T07:03:42;12.80;54.20
3986;DHT22;2007;48.750;9.278;2023-12-20T07:06:10;12.80;54.20
3986;DHT22;2007;48.750;9.278;2023-12-20T07:08:39;12.80;54.20
3986;DHT22;2007;48.750;9.278;2023-12-20T07:11:07;12.80;54.20
3986;DHT22;2007;48.750;9.278;2023-12-20T07:13:35;12.80;54.20
3986;DHT22;2007;48.750;9.278;2023-12-20T07:16:04;12.80;54.20
3986;DHT22;2007;48.750;9.278;2023-12-20T07:18:32;12.90;54.30
3986;DHT22;2007;48.750;9.278;2023-12-20T07:21:01;12.80;54.20
3986;DHT22;2007;48.750;9.278;2023-12-20T07:23:29;12.90;54.30
3986;DHT22;2007;48.750;9.278;2023-12-20T07:25:57;12.90;54.30
3986;DHT22;2007;48.750;9.278;2023-12-20T07:28:25;12.90;54.30
3986;DHT22;2007;48.750;9.278;2023-12-20T07:30:53;12.80;54.20
3986;DHT22;2007;48.750;9.278;2023-12-20T07:33:21;12.90;54.30
3986;DHT22;2007;48.750;9.278;2023-12-20T07:35:49;12.80;54.20
3986;DHT22;2007;48.750;9.278;2023-12-20T07:38:20;12.90;54.30
3986;DHT22;2007;48.750;9.278;2023-12-20T07:40:48;12.90;54.30
3986;DHT22;2007;48.750;9.278;2023-12-20T07:43:16;12.90;54.30
3986;DHT22;2007;48.750;9.278;2023-12-20T07:45:44;12.90;54.30
3986;DHT22;2007;48.750;9.278;2023-12-20T07:48:12;12.90;54.30
3986;DHT22;2007;48.750;9.278;2023-12-20T07:50:40;12.90;54.30
3986;DHT22;2007;48.750;9.278;2023-12-20T07:53:09;12.90;54.30
3986;DHT22;2007;48.750;9.278;2023-12-20T07:55:39;12.90;54.30
3986;DHT22;2007;48.750;9.278;2023-12-20T07:58:07;12.90;54.40
3986;DHT22;2007;48.750;9.278;2023-12-20T08:00:35;12.90;54.30
3986;DHT22;2007;48.750;9.278;2023-12-20T08:03:03;12.90;54.30
3986;DHT22;2007;48.750;9.278;2023-12-20T08:05:31;12.90;54.30
3986;DHT22;2007;48.750;9.278;2023-12-20T08:07:59;12.90;54.30
3986;DHT22;2007;48.750;9.278;2023-12-20T08:10:27;12.90;54.40
3986;DHT22;2007;48.750;9.278;2023-12-20T08:12:58;12.90;54.30
3986;DHT22;2007;48.750;9.278;2023-12-20T08:15:26;12.90;54.30
3986;DHT22;2007;48.750;9.278;2023-12-20T08:17:54;12.90;54.30
3986;DHT22;2007;48.750;9.278;2023-12-20T08:20:22;12.90;54.30
3986;DHT22;2007;48.750;9.278;2023-12-20T08:23:05;12.90;54.30
3986;DHT22;2007;48.750;9.278;2023-12-20T08:25:33;12.90;54.30
3986;DHT22;2007;48.750;9.278;2023-12-20T08:28:03;12.90;54.30
3986;DHT22;2007;48.750;9.278;2023-12-20T08:30:31;12.90;54.30
3986;DHT22;2007;48.750;9.278;2023-12-20T08:32:59;12.90;54.30
3986;DHT22;2007;48.750;9.278;2023-12-20T08:35:27;12.90;54.30
3986;DHT22;2007;48.750;9.278;2023-12-20T08:37:56;12.90;54.30
3986;DHT22;2007;48.750;9.278;2023-12-20T08:40:24;12.90;54.30
3986;DHT22;2007;48.750;9.278;2023-12-20T08:42:52;12.90;54.30
3986;DHT22;2007;48.750;9.278;2023-12-20T08:45:21;12.90;54.30
3986;DHT22;2007;48.750;9.278;2023-12-20T08:47:49;12.90;54.30
3986;DHT22;2007;48.750;9.278;2023-12-20T08:50:18;12.90;54.30
3986;DHT22;2007;48.750;9.278;2023-12-20T08:52:46;12.90;54.30
3986;DHT22;2007;48.750;9.278;2023-12-20T08:55:14;12.90;54.30
3986;DHT22;2007;48.750;9.278;2023-12-20T08:57:44;12.90;54.30
3986;DHT22;2007;48.750;9.278;2023-12-20T09:00:14;12.90;54.30
3986;DHT22;2007;48.750;9.278;2023-12-20T09:02:43;12.90;54.30
3986;DHT22;2007;48.750;9.278;2023-12-20T09:05:11;12.90;54.30
3986;DHT22;2007;48.750;9.278;2023-12-20T09:07:39;12.90;54.30
3986;DHT22;2007;48.750;9.278;2023-12-20T09:10:07;12.90;54.30
3986;DHT22;2007;48.750;9.278;2023-12-20T09:12:35;12.90;54.30
3986;DHT22;2007;48.750;9.278;2023-12-20T09:15:06;12.90;54.30
3986;DHT22;2007;48.750;9.278;2023-12-20T09:17:34;12.90;54.30
3986;DHT22;2007;48.750;9.278;2023-12-20T09:20:04;12.90;54.30
3986;DHT22;2007;48.750;9.278;2023-12-20T09:22:34;12.90;54.20
3986;DHT22;2007;48.750;9.278;2023-12-20T09:25:03;12.90;54.30
3986;DHT22;2007;48.750;9.278;2023-12-20T09:27:31;12.90;54.20
3986;DHT22;2007;48.750;9.278;2023-12-20T09:29:59;12.90;54.20
3986;DHT22;2007;48.750;9.278;2023-12-20T09:32:27;12.90;54.20
3986;DHT22;2007;48.750;9.278;2023-12-20T09:34:56;12.90;54.20
3986;DHT22;2007;48.750;9.278;2023-12-20T09:37:27;12.90;54.20
3986;DHT22;2007;48.750;9.278;2023-12-20T09:39:55;12.90;54.30
3986;DHT22;2007;48.750;9.278;2023-12-20T09:42:29;12.90;54.20
3986;DHT22;2007;48.750;9.278;2023-12-20T09:45:02;12.90;54.20
3986;DHT22;2007;48.750;9.278;2023-12-20T09:47:31;12.90;54.20
3986;DHT22;2007;48.750;9.278;2023-12-20T09:49:59;12.90;54.20
3986;DHT22;2007;48.750;9.278;2023-12-20T09:52:29;12.90;54.20
3986;DHT22;2007;48.750;9.278;2023-12-20T09:54:58;12.90;54.30
3986;DHT22;2007;48.750;9.278;2023-12-20T09:57:26;12.90;54.20
3986;DHT22;2007;48.750;9.278;2023-12-20T09:59:54;12.90;54.20
3986;DHT22;2007;48.750;9.278;2023-12-20T10:02:25;12.90;54.20
3986;DHT22;2007;48.750;9.278;2023-12-20T10:04:54;12.90;54.20
3986;DHT22;2007;48.750;9.278;2023-12-20T10:07:23;12.90;54.20
3986;DHT22;2007;48.750;9.278;2023-12-20T10:09:54;12.90;54.20
3986;DHT22;2007;48.750;9.278;2023-12-20T10:12:22;12.90;54.20
3986;DHT22;2007;48.750;9.278;2023-12-20T10:14:50;12.90;54.20
3986;DHT22;2007;48.750;9.278;2023-12-20T10:17:18;12.90;54.20
3986;DHT22;2007;48.750;9.278;2023-12-20T10:19:46;12.90;54.20
3986;DHT22;2007;48.750;9.278;2023-12-20T10:22:15;12.90;54.20
3986;DHT22;2007;48.750;9.278;2023-12-20T10:24:43;12.90;54.20
3986;DHT22;2007;48.750;9.278;2023-12-20T10:27:14;12.90;54.10
3986;DHT22;2007;48.750;9.278;2023-12-20T10:29:46;12.90;54.20
3986;DHT22;2007;48.750;9.278;2023-12-20T10:32:24;13.00;54.20
3986;DHT22;2007;48.750;9.278;2023-12-20T10:34:54;13.00;54.20
3986;DHT22;2007;48.750;9.278;2023-12-20T10:37:23;12.90;54.10
3986;DHT22;2007;48.750;9.278;2023-12-20T10:39:53;12.90;54.10
3986;DHT22;2007;48.750;9.278;2023-12-20T10:42:26;12.90;54.10
3986;DHT22;2007;48.750;9.278;2023-12-20T10:44:54;13.00;54.20
3986;DHT22;2007;48.750;9.278;2023-12-20T10:47:23;13.00;54.20
3986;DHT22;2007;48.750;9.278;2023-12-20T10:49:52;12.90;54.10
3986;DHT22;2007;48.750;9.278;2023-12-20T10:52:23;13.00;54.20
3986;DHT22;2007;48.750;9.278;2023-12-20T10:54:51;13.00;54.20
3986;DHT22;2007;48.750;9.278;2023-12-20T10:57:20;13.00;54.20
3986;DHT22;2007;48.750;9.278;2023-12-20T10:59:53;13.00;54.20
3986;DHT22;2007;48.750;9.278;2023-12-20T11:02:22;13.00;54.20
3986;DHT22;2007;48.750;9.278;2023-12-20T11:04:55;13.00;54.10
3986;DHT22;2007;48.750;9.278;2023-12-20T11:07:31;13.00;54.10
3986;DHT22;2007;48.750;9.278;2023-12-20T11:10:03;13.00;54.10
3986;DHT22;2007;48.750;9.278;2023-12-20T11:12:43;13.00;54.80
3986;DHT22;2007;48.750;9.278;2023-12-20T11:15:16;13.00;54.10
3986;DHT22;2007;48.750;9.278;2023-12-20T11:17:45;13.00;54.20
3986;DHT22;2007;48.750;9.278;2023-12-20T11:20:18;12.90;54.00
3986;DHT22;2007;48.750;9.278;2023-12-20T11:22:53;13.00;54.20
3986;DHT22;2007;48.750;9.278;2023-12-20T11:25:21;13.00;54.10
3986;DHT22;2007;48.750;9.278;2023-12-20T11:28:10;13.00;54.10
3986;DHT22;2007;48.750;9.278;2023-12-20T11:30:46;13.00;54.10
3986;DHT22;2007;48.750;9.278;2023-12-20T11:33:15;13.00;54.10
3986;DHT22;2007;48.750;9.278;2023-12-20T11:35:45;13.00;54.10
3986;DHT22;2007;48.750;9.278;2023-12-20T11:38:13;13.00;54.10
3986;DHT22;2007;48.750;9.278;2023-12-20T11:40:42;13.00;54.10
3986;DHT22;2007;48.750;9.278;2023-12-20T11:43:10;13.00;54.10
3986;DHT22;2007;48.750;9.278;2023-12-20T11:45:50;13.00;54.10
3986;DHT22;2007;48.750;9.278;2023-12-20T11:48:19;13.00;54.10
3986;DHT22;2007;48.750;9.278;2023-12-20T11:50:47;13.00;54.10
3986;DHT22;2007;48.750;9.278;2023-12-20T11:53:15;13.00;54.10
3986;DHT22;2007;48.750;9.278;2023-12-20T11:55:47;13.00;54.10
3986;DHT22;2007;48.750;9.278;2023-12-20T11:58:15;13.00;54.10
3986;DHT22;2007;48.750;9.278;2023-12-20T12:00:44;13.00;54.10
3986;DHT22;2007;48.750;9.278;2023-12-20T12:03:15;13.00;54.10
3986;DHT22;2007;48.750;9.278;2023-12-20T12:05:43;13.00;54.00
3986;DHT22;2007;48.750;9.278;2023-12-20T12:08:14;13.00;54.00
3986;DHT22;2007;48.750;9.278;2023-12-20T12:10:42;13.00;54.00
3986;DHT22;2007;48.750;9.278;2023-12-20T12:13:10;13.00;54.10
3986;DHT22;2007;48.750;9.278;2023-12-20T12:15:38;13.00;54.00
3986;DHT22;2007;48.750;9.278;2023-12-20T12:18:09;13.00;54.00
3986;DHT22;2007;48.750;9.278;2023-12-20T12:20:38;13.00;54.20
3986;DHT22;2007;48.750;9.278;2023-12-20T12:23:06;13.00;54.00
3986;DHT22;2007;48.750;9.278;2023-12-20T12:25:36;13.00;54.00
3986;DHT22;2007;48.750;9.278;2023-12-20T12:28:09;13.00;54.00
3986;DHT22;2007;48.750;9.278;2023-12-20T12:30:37;13.00;54.00
3986;DHT22;2007;48.750;9.278;2023-12-20T12:33:16;13.00;54.00
3986;DHT22;2007;48.750;9.278;2023-12-20T12:35:46;13.00;54.00
3986;DHT22;2007;48.750;9.278;2023-12-20T12:38:14;13.00;54.00
3986;DHT22;2007;48.750;9.278;2023-12-20T12:40:43;13.00;54.00
3986;DHT22;2007;48.750;9.278;2023-12-20T12:43:11;13.00;54.00
3986;DHT22;2007;48.750;9.278;2023-12-20T12:45:39;13.00;54.00
3986;DHT22;2007;48.750;9.278;2023-12-20T12:48:07;13.00;54.00
3986;DHT22;2007;48.750;9.278;2023-12-20T12:50:35;13.00;54.00
3986;DHT22;2007;48.750;9.278;2023-12-20T12:53:05;13.00;54.00
3986;DHT22;2007;48.750;9.278;2023-12-20T12:55:34;13.00;54.00
3986;DHT22;2007;48.750;9.278;2023-12-20T12:58:02;13.00;54.00
3986;DHT22;2007;48.750;9.278;2023-12-20T13:00:31;13.00;54.00
3986;DHT22;2007;48.750;9.278;2023-12-20T13:02:59;13.00;54.00
3986;DHT22;2007;48.750;9.278;2023-12-20T13:05:27;13.00;54.00
3986;DHT22;2007;48.750;9.278;2023-12-20T13:07:55;13.00;54.00
3986;DHT22;2007;48.750;9.278;2023-12-20T13:10:24;13.00;54.00
3986;DHT22;2007;48.750;9.278;2023-12-20T13:12:53;13.00;54.00
3986;DHT22;2007;48.750;9.278;2023-12-20T13:15:21;13.00;54.00
3986;DHT22;2007;48.750;9.278;2023-12-20T13:17:49;13.00;54.00
3986;DHT22;2007;48.750;9.278;2023-12-20T13:20:17;13.00;54.00
3986;DHT22;2007;48.750;9.278;2023-12-20T13:22:46;13.00;54.00
3986;DHT22;2007;48.750;9.278;2023-12-20T13:25:14;13.00;54.00
3986;DHT22;2007;48.750;9.278;2023-12-20T13:27:43;13.00;54.00
3986;DHT22;2007;48.750;9.278;2023-12-20T13:30:13;13.00;54.00
3986;DHT22;2007;48.750;9.278;2023-12-20T13:32:41;13.00;54.00
3986;DHT22;2007;48.750;9.278;2023-12-20T13:35:09;13.00;54.00
3986;DHT22;2007;48.750;9.278;2023-12-20T13:37:38;13.00;54.00
3986;DHT22;2007;48.750;9.278;2023-12-20T13:40:08;13.00;54.00
3986;DHT22;2007;48.750;9.278;2023-12-20T13:42:36;13.00;54.00
3986;DHT22;2007;48.750;9.278;2023-12-20T13:45:07;13.00;54.00
3986;DHT22;2007;48.750;9.278;2023-12-20T13:47:35;13.00;54.00
3986;DHT22;2007;48.750;9.278;2023-12-20T13:50:03;13.00;54.00
3986;DHT22;2007;48.750;9.278;2023-12-20T13:52:32;13.00;54.00
3986;DHT22;2007;48.750;9.278;2023-12-20T13:55:05;13.00;54.00
3986;DHT22;2007;48.750;9.278;2023-12-20T13:57:34;13.00;54.00
3986;DHT22;2007;48.750;9.278;2023-12-20T14:00:22;13.00;54.00
3986;DHT22;2007;48.750;9.278;2023-12-20T14:02:50;13.00;54.00
3986;DHT22;2007;48.750;9.278;2023-12-20T14:05:18;13.00;53.90
3986;DHT22;2007;48.750;9.278;2023-12-20T14:07:50;13.00;53.90
3986;DHT22;2007;48.750;9.278;2023-12-20T14:10:19;13.00;54.00
3986;DHT22;2007;48.750;9.278;2023-12-20T14:12:47;13.00;53.90
3986;DHT22;2007;48.750;9.278;2023-12-20T14:15:15;13.00;53.90
3986;DHT22;2007;48.750;9.278;2023-12-20T14:17:44;13.00;53.90
3986;DHT22;2007;48.750;9.278;2023-12-20T14:20:13;13.00;53.90
3986;DHT22;2007;48.750;9.278;2023-12-20T14:22:41;13.00;53.90
3986;DHT22;2007;48.750;9.278;2023-12-20T14:25:11;13.00;53.90
3986;DHT22;2007;48.750;9.278;2023-12-20T14:27:40;13.00;53.90
3986;DHT22;2007;48.750;9.278;2023-12-20T14:30:11;13.10;54.00
3986;DHT22;2007;48.750;9.278;2023-12-20T14:32:41;13.00;54.00
3986;DHT22;2007;48.750;9.278;2023-12-20T14:35:11;13.10;54.00
3986;DHT22;2007;48.750;9.278;2023-12-20T14:37:40;13.00;53.90
3986;DHT22;2007;48.750;9.278;2023-12-20T14:40:09;13.10;54.00
3986;DHT22;2007;48.750;9.278;2023-12-20T14:42:38;13.00;53.90
3986;DHT22;2007;48.750;9.278;2023-12-20T14:45:06;13.10;54.00
3986;DHT22;2007;48.750;9.278;2023-12-20T14:47:35;13.00;53.90
3986;DHT22;2007;48.750;9.278;2023-12-20T14:50:04;13.00;53.90
3986;DHT22;2007;48.750;9.278;2023-12-20T14:52:33;13.10;54.00
3986;DHT22;2007;48.750;9.278;2023-12-20T14:55:02;13.10;54.00
3986;DHT22;2007;48.750;9.278;2023-12-20T14:57:30;13.10;54.00
3986;DHT22;2007;48.750;9.278;2023-12-20T14:59:58;13.10;54.00
3986;DHT22;2007;48.750;9.278;2023-12-20T15:02:26;13.10;54.00
3986;DHT22;2007;48.750;9.278;2023-12-20T15:04:54;13.10;54.00
3986;DHT22;2007;48.750;9.278;2023-12-20T15:07:22;13.10;54.00
3986;DHT22;2007;48.750;9.278;2023-12-20T15:09:51;13.10;54.00
3986;DHT22;2007;48.750;9.278;2023-12-20T15:12:19;13.10;54.00
3986;DHT22;2007;48.750;9.278;2023-12-20T15:14:47;13.10;54.00
3986;DHT22;2007;48.750;9.278;2023-12-20T15:17:15;13.10;54.00
3986;DHT22;2007;48.750;9.278;2023-12-20T15:19:43;13.10;54.00
3986;DHT22;2007;48.750;9.278;2023-12-20T15:22:11;13.10;54.00
3986;DHT22;2007;48.750;9.278;2023-12-20T15:24:39;13.10;54.00
3986;DHT22;2007;48.750;9.278;2023-12-20T15:27:10;13.10;54.00
3986;DHT22;2007;48.750;9.278;2023-12-20T15:29:38;13.10;54.00
3986;DHT22;2007;48.750;9.278;2023-12-20T15:32:06;13.10;54.00
3986;DHT22;2007;48.750;9.278;2023-12-20T15:34:35;13.10;54.00
3986;DHT22;2007;48.750;9.278;2023-12-20T15:37:03;13.10;54.00
3986;DHT22;2007;48.750;9.278;2023-12-20T15:39:31;13.10;54.00
3986;DHT22;2007;48.750;9.278;2023-12-20T15:41:59;13.10;54.00
3986;DHT22;2007;48.750;9.278;2023-12-20T15:44:28;13.10;54.00
3986;DHT22;2007;48.750;9.278;2023-12-20T15:46:56;13.10;54.00
3986;DHT22;2007;48.750;9.278;2023-12-20T15:49:24;13.10;54.00
3986;DHT22;2007;48.750;9.278;2023-12-20T15:51:52;13.10;54.00
3986;DHT22;2007;48.750;9.278;2023-12-20T15:54:20;13.10;54.00
3986;DHT22;2007;48.750;9.278;2023-12-20T15:56:48;13.10;54.00
3986;DHT22;2007;48.750;9.278;2023-12-20T15:59:16;13.10;54.00
3986;DHT22;2007;48.750;9.278;2023-12-20T16:01:45;13.10;54.00
3986;DHT22;2007;48.750;9.278;2023-12-20T16:04:20;13.10;54.00
3986;DHT22;2007;48.750;9.278;2023-12-20T16:06:48;13.10;54.00
3986;DHT22;2007;48.750;9.278;2023-12-20T16:09:16;13.10;54.00
3986;DHT22;2007;48.750;9.278;2023-12-20T16:11:44;13.10;54.00
3986;DHT22;2007;48.750;9.278;2023-12-20T16:14:11;13.10;54.00